sensor_id;sensor_type;location;lat;lon;timestamp;P1;durP1;ratioP1;P2;durP2;ratioP2
63120;SDS011;54478;48.684;20.114;2023-06-22T00:01:23;9.10;;;3.28;;
63120;SDS011;54478;48.684;20.114;2023-06-22T00:03:52;7.60;;;3.58;;
63120;SDS011;54478;48.684;20.114;2023-06-22T00:06:20;8.73;;;3.67;;
63120;SDS011;54478;48.684;20.114;2023-06-22T00:08:48;7.80;;;3.40;;
63120;SDS011;54478;48.684;20.114;2023-06-22T00:11:16;10.70;;;4.55;;
63120;SDS011;54478;48.684;20.114;2023-06-22T00:13:44;8.30;;;4.13;;
63120;SDS011;54478;48.684;20.114;2023-06-22T00:16:12;6.38;;;3.85;;
63120;SDS011;54478;48.684;20.114;2023-06-22T00:18:40;9.05;;;3.85;;
63120;SDS011;54478;48.684;20.114;2023-06-22T00:21:15;12.77;;;4.35;;
63120;SDS011;54478;48.684;20.114;2023-06-22T00:23:43;10.40;;;4.30;;
63120;SDS011;54478;48.684;20.114;2023-06-22T00:26:11;7.75;;;3.95;;
63120;SDS011;54478;48.684;20.114;2023-06-22T00:28:39;6.72;;;4.50;;
63120;SDS011;54478;48.684;20.114;2023-06-22T00:31:07;8.23;;;4.00;;
63120;SDS011;54478;48.684;20.114;2023-06-22T00:33:35;7.32;;;4.30;;
63120;SDS011;54478;48.684;20.114;2023-06-22T00:36:03;8.00;;;4.38;;
63120;SDS011;54478;48.684;20.114;2023-06-22T00:38:32;8.10;;;4.30;;
63120;SDS011;54478;48.684;20.114;2023-06-22T00:40:57;7.05;;;3.85;;
63120;SDS011;54478;48.684;20.114;2023-06-22T00:43:25;7.32;;;4.05;;
63120;SDS011;54478;48.684;20.114;2023-06-22T00:45:55;7.68;;;4.20;;
63120;SDS011;54478;48.684;20.114;2023-06-22T00:48:24;7.40;;;4.35;;
63120;SDS011;54478;48.684;20.114;2023-06-22T00:50:52;6.43;;;3.78;;
63120;SDS011;54478;48.684;20.114;2023-06-22T00:53:21;7.57;;;4.45;;
63120;SDS011;54478;48.684;20.114;2023-06-22T00:55:49;9.60;;;4.45;;
63120;SDS011;54478;48.684;20.114;2023-06-22T00:58:21;5.90;;;4.13;;
63120;SDS011;54478;48.684;20.114;2023-06-22T01:00:51;10.52;;;4.10;;
63120;SDS011;54478;48.684;20.114;2023-06-22T01:03:18;8.98;;;4.72;;
63120;SDS011;54478;48.684;20.114;2023-06-22T01:05:48;7.22;;;3.90;;
63120;SDS011;54478;48.684;20.114;2023-06-22T01:08:29;6.90;;;3.75;;
63120;SDS011;54478;48.684;20.114;2023-06-22T01:16:24;6.10;;;4.15;;
63120;SDS011;54478;48.684;20.114;2023-06-22T01:18:50;7.03;;;4.53;;
63120;SDS011;54478;48.684;20.114;2023-06-22T01:21:20;7.18;;;4.47;;
63120;SDS011;54478;48.684;20.114;2023-06-22T01:26:42;8.35;;;4.28;;
63120;SDS011;54478;48.684;20.114;2023-06-22T01:29:11;10.15;;;4.10;;
63120;SDS011;54478;48.684;20.114;2023-06-22T01:31:38;7.10;;;4.50;;
63120;SDS011;54478;48.684;20.114;2023-06-22T01:34:07;10.40;;;4.05;;
63120;SDS011;54478;48.684;20.114;2023-06-22T01:36:36;13.85;;;5.30;;
63120;SDS011;54478;48.684;20.114;2023-06-22T01:39:04;6.97;;;4.47;;
63120;SDS011;54478;48.684;20.114;2023-06-22T01:41:33;10.35;;;4.70;;
63120;SDS011;54478;48.684;20.114;2023-06-22T01:43:59;11.85;;;4.20;;
63120;SDS011;54478;48.684;20.114;2023-06-22T01:46:27;7.45;;;4.47;;
63120;SDS011;54478;48.684;20.114;2023-06-22T01:48:56;8.00;;;4.28;;
63120;SDS011;54478;48.684;20.114;2023-06-22T01:51:22;9.00;;;3.85;;
63120;SDS011;54478;48.684;20.114;2023-06-22T01:53:50;8.63;;;4.20;;
63120;SDS011;54478;48.684;20.114;2023-06-22T01:56:18;8.35;;;4.00;;
63120;SDS011;54478;48.684;20.114;2023-06-22T01:58:49;7.05;;;3.90;;
63120;SDS011;54478;48.684;20.114;2023-06-22T02:04:19;8.55;;;3.40;;
63120;SDS011;54478;48.684;20.114;2023-06-22T02:06:36;9.15;;;4.32;;
63120;SDS011;54478;48.684;20.114;2023-06-22T02:09:07;7.75;;;3.80;;
63120;SDS011;54478;48.684;20.114;2023-06-22T02:11:36;5.95;;;4.00;;
63120;SDS011;54478;48.684;20.114;2023-06-22T02:14:05;6.38;;;4.30;;
63120;SDS011;54478;48.684;20.114;2023-06-22T02:16:33;9.93;;;4.57;;
63120;SDS011;54478;48.684;20.114;2023-06-22T02:19:02;10.40;;;4.43;;
63120;SDS011;54478;48.684;20.114;2023-06-22T02:21:34;5.85;;;4.03;;
63120;SDS011;54478;48.684;20.114;2023-06-22T02:24:02;8.40;;;3.92;;
63120;SDS011;54478;48.684;20.114;2023-06-22T02:26:30;11.77;;;4.03;;
63120;SDS011;54478;48.684;20.114;2023-06-22T02:28:59;13.85;;;4.60;;
63120;SDS011;54478;48.684;20.114;2023-06-22T02:31:27;9.25;;;4.70;;
63120;SDS011;54478;48.684;20.114;2023-06-22T02:33:58;7.55;;;4.10;;
63120;SDS011;54478;48.684;20.114;2023-06-22T02:36:27;11.10;;;3.95;;
63120;SDS011;54478;48.684;20.114;2023-06-22T02:38:58;7.30;;;3.72;;
63120;SDS011;54478;48.684;20.114;2023-06-22T02:41:25;6.82;;;4.18;;
63120;SDS011;54478;48.684;20.114;2023-06-22T02:43:53;7.43;;;4.30;;
63120;SDS011;54478;48.684;20.114;2023-06-22T02:46:22;9.35;;;3.92;;
63120;SDS011;54478;48.684;20.114;2023-06-22T02:48:50;6.15;;;4.00;;
63120;SDS011;54478;48.684;20.114;2023-06-22T02:51:18;6.97;;;3.75;;
63120;SDS011;54478;48.684;20.114;2023-06-22T02:53:46;8.50;;;4.53;;
63120;SDS011;54478;48.684;20.114;2023-06-22T02:56:15;6.72;;;4.30;;
63120;SDS011;54478;48.684;20.114;2023-06-22T02:58:43;9.90;;;4.38;;
63120;SDS011;54478;48.684;20.114;2023-06-22T03:01:11;9.98;;;4.60;;
63120;SDS011;54478;48.684;20.114;2023-06-22T03:03:41;7.65;;;4.22;;
63120;SDS011;54478;48.684;20.114;2023-06-22T03:06:10;10.00;;;4.53;;
63120;SDS011;54478;48.684;20.114;2023-06-22T03:08:41;8.55;;;4.28;;
63120;SDS011;54478;48.684;20.114;2023-06-22T03:11:09;8.40;;;3.85;;
63120;SDS011;54478;48.684;20.114;2023-06-22T03:13:37;8.77;;;4.30;;
63120;SDS011;54478;48.684;20.114;2023-06-22T03:16:05;6.40;;;4.07;;
63120;SDS011;54478;48.684;20.114;2023-06-22T03:18:33;10.65;;;4.97;;
63120;SDS011;54478;48.684;20.114;2023-06-22T03:21:01;8.00;;;4.43;;
63120;SDS011;54478;48.684;20.114;2023-06-22T03:23:30;6.00;;;4.32;;
63120;SDS011;54478;48.684;20.114;2023-06-22T03:25:58;18.02;;;5.22;;
63120;SDS011;54478;48.684;20.114;2023-06-22T03:28:26;8.57;;;4.70;;
63120;SDS011;54478;48.684;20.114;2023-06-22T03:30:54;12.50;;;5.20;;
63120;SDS011;54478;48.684;20.114;2023-06-22T03:33:22;8.85;;;4.60;;
63120;SDS011;54478;48.684;20.114;2023-06-22T03:35:50;7.80;;;4.60;;
63120;SDS011;54478;48.684;20.114;2023-06-22T03:38:18;6.22;;;4.05;;
63120;SDS011;54478;48.684;20.114;2023-06-22T03:40:43;8.10;;;4.97;;
63120;SDS011;54478;48.684;20.114;2023-06-22T03:43:12;10.40;;;5.00;;
63120;SDS011;54478;48.684;20.114;2023-06-22T03:45:40;9.95;;;5.50;;
63120;SDS011;54478;48.684;20.114;2023-06-22T03:48:08;11.25;;;5.00;;
63120;SDS011;54478;48.684;20.114;2023-06-22T03:50:36;11.95;;;4.53;;
63120;SDS011;54478;48.684;20.114;2023-06-22T03:53:04;8.27;;;4.63;;
63120;SDS011;54478;48.684;20.114;2023-06-22T03:55:33;9.18;;;4.63;;
63120;SDS011;54478;48.684;20.114;2023-06-22T03:58:01;10.05;;;4.43;;
63120;SDS011;54478;48.684;20.114;2023-06-22T04:00:33;13.27;;;4.57;;
63120;SDS011;54478;48.684;20.114;2023-06-22T04:03:01;10.82;;;4.57;;
63120;SDS011;54478;48.684;20.114;2023-06-22T04:05:29;7.72;;;4.38;;
63120;SDS011;54478;48.684;20.114;2023-06-22T04:07:58;13.35;;;5.55;;
63120;SDS011;54478;48.684;20.114;2023-06-22T04:10:26;8.13;;;5.03;;
63120;SDS011;54478;48.684;20.114;2023-06-22T04:12:54;7.82;;;4.72;;
63120;SDS011;54478;48.684;20.114;2023-06-22T04:15:22;8.23;;;5.15;;
63120;SDS011;54478;48.684;20.114;2023-06-22T04:17:50;13.40;;;4.80;;
63120;SDS011;54478;48.684;20.114;2023-06-22T04:20:18;10.95;;;4.57;;
63120;SDS011;54478;48.684;20.114;2023-06-22T04:22:46;12.13;;;5.57;;
63120;SDS011;54478;48.684;20.114;2023-06-22T04:25:14;10.13;;;5.25;;
63120;SDS011;54478;48.684;20.114;2023-06-22T04:27:42;10.68;;;5.00;;
63120;SDS011;54478;48.684;20.114;2023-06-22T04:30:10;5.88;;;4.43;;
63120;SDS011;54478;48.684;20.114;2023-06-22T04:32:39;11.07;;;5.05;;
63120;SDS011;54478;48.684;20.114;2023-06-22T04:35:09;9.68;;;4.05;;
63120;SDS011;54478;48.684;20.114;2023-06-22T04:37:37;11.48;;;4.68;;
63120;SDS011;54478;48.684;20.114;2023-06-22T04:40:07;14.90;;;5.22;;
63120;SDS011;54478;48.684;20.114;2023-06-22T04:42:37;9.73;;;4.40;;
63120;SDS011;54478;48.684;20.114;2023-06-22T04:45:05;6.75;;;4.20;;
63120;SDS011;54478;48.684;20.114;2023-06-22T04:47:34;10.38;;;4.65;;
63120;SDS011;54478;48.684;20.114;2023-06-22T04:50:02;11.55;;;5.00;;
63120;SDS011;54478;48.684;20.114;2023-06-22T04:52:33;8.40;;;5.05;;
63120;SDS011;54478;48.684;20.114;2023-06-22T04:55:02;10.02;;;4.30;;
63120;SDS011;54478;48.684;20.114;2023-06-22T04:57:31;10.50;;;4.20;;
63120;SDS011;54478;48.684;20.114;2023-06-22T05:00:02;5.88;;;3.97;;
63120;SDS011;54478;48.684;20.114;2023-06-22T05:02:40;10.65;;;4.72;;
63120;SDS011;54478;48.684;20.114;2023-06-22T05:05:06;9.90;;;4.47;;
63120;SDS011;54478;48.684;20.114;2023-06-22T05:07:34;8.00;;;4.53;;
63120;SDS011;54478;48.684;20.114;2023-06-22T05:10:03;18.55;;;4.65;;
63120;SDS011;54478;48.684;20.114;2023-06-22T05:12:31;9.13;;;4.18;;
63120;SDS011;54478;48.684;20.114;2023-06-22T05:15:00;6.53;;;3.83;;
63120;SDS011;54478;48.684;20.114;2023-06-22T05:17:29;8.63;;;4.63;;
63120;SDS011;54478;48.684;20.114;2023-06-22T05:19:57;11.38;;;5.25;;
63120;SDS011;54478;48.684;20.114;2023-06-22T05:22:25;12.68;;;4.90;;
63120;SDS011;54478;48.684;20.114;2023-06-22T05:24:53;11.43;;;5.00;;
63120;SDS011;54478;48.684;20.114;2023-06-22T05:27:21;13.90;;;6.20;;
63120;SDS011;54478;48.684;20.114;2023-06-22T05:29:49;8.23;;;5.03;;
63120;SDS011;54478;48.684;20.114;2023-06-22T05:32:17;7.93;;;4.15;;
63120;SDS011;54478;48.684;20.114;2023-06-22T05:34:46;8.63;;;4.32;;
63120;SDS011;54478;48.684;20.114;2023-06-22T05:37:15;8.07;;;4.68;;
63120;SDS011;54478;48.684;20.114;2023-06-22T05:39:43;16.10;;;5.00;;
63120;SDS011;54478;48.684;20.114;2023-06-22T05:42:08;13.98;;;5.75;;
63120;SDS011;54478;48.684;20.114;2023-06-22T05:44:36;11.07;;;4.85;;
63120;SDS011;54478;48.684;20.114;2023-06-22T05:47:07;17.00;;;5.65;;
63120;SDS011;54478;48.684;20.114;2023-06-22T05:49:35;18.15;;;6.15;;
63120;SDS011;54478;48.684;20.114;2023-06-22T05:52:03;8.45;;;4.90;;
63120;SDS011;54478;48.684;20.114;2023-06-22T05:54:31;10.82;;;4.90;;
63120;SDS011;54478;48.684;20.114;2023-06-22T05:56:59;11.45;;;5.43;;
63120;SDS011;54478;48.684;20.114;2023-06-22T05:59:27;8.57;;;4.72;;
63120;SDS011;54478;48.684;20.114;2023-06-22T06:01:53;12.32;;;5.00;;
63120;SDS011;54478;48.684;20.114;2023-06-22T06:04:21;10.70;;;5.10;;
63120;SDS011;54478;48.684;20.114;2023-06-22T06:06:49;11.80;;;4.53;;
63120;SDS011;54478;48.684;20.114;2023-06-22T06:09:18;8.95;;;4.55;;
63120;SDS011;54478;48.684;20.114;2023-06-22T06:11:46;9.00;;;4.70;;
63120;SDS011;54478;48.684;20.114;2023-06-22T06:14:14;10.57;;;4.68;;
63120;SDS011;54478;48.684;20.114;2023-06-22T06:16:42;18.90;;;4.72;;
63120;SDS011;54478;48.684;20.114;2023-06-22T06:19:10;9.15;;;4.53;;
63120;SDS011;54478;48.684;20.114;2023-06-22T06:21:38;9.23;;;4.60;;
63120;SDS011;54478;48.684;20.114;2023-06-22T06:24:06;12.18;;;4.97;;
63120;SDS011;54478;48.684;20.114;2023-06-22T06:26:34;12.25;;;4.85;;
63120;SDS011;54478;48.684;20.114;2023-06-22T06:29:01;11.15;;;5.07;;
63120;SDS011;54478;48.684;20.114;2023-06-22T06:31:30;8.25;;;4.28;;
63120;SDS011;54478;48.684;20.114;2023-06-22T06:33:58;9.25;;;4.55;;
63120;SDS011;54478;48.684;20.114;2023-06-22T06:36:27;10.15;;;3.90;;
63120;SDS011;54478;48.684;20.114;2023-06-22T06:38:55;15.48;;;5.28;;
63120;SDS011;54478;48.684;20.114;2023-06-22T06:41:20;8.88;;;4.70;;
63120;SDS011;54478;48.684;20.114;2023-06-22T06:43:49;9.25;;;5.38;;
63120;SDS011;54478;48.684;20.114;2023-06-22T06:46:17;8.52;;;4.82;;
63120;SDS011;54478;48.684;20.114;2023-06-22T06:48:47;8.23;;;5.03;;
63120;SDS011;54478;48.684;20.114;2023-06-22T06:51:15;11.52;;;5.03;;
63120;SDS011;54478;48.684;20.114;2023-06-22T06:53:43;11.45;;;4.72;;
63120;SDS011;54478;48.684;20.114;2023-06-22T06:56:11;9.05;;;4.72;;
63120;SDS011;54478;48.684;20.114;2023-06-22T06:58:42;14.93;;;4.05;;
63120;SDS011;54478;48.684;20.114;2023-06-22T07:01:12;14.43;;;4.80;;
63120;SDS011;54478;48.684;20.114;2023-06-22T07:03:41;7.22;;;4.18;;
63120;SDS011;54478;48.684;20.114;2023-06-22T07:06:06;11.85;;;4.90;;
63120;SDS011;54478;48.684;20.114;2023-06-22T07:08:34;10.25;;;4.85;;
63120;SDS011;54478;48.684;20.114;2023-06-22T07:11:04;11.57;;;4.40;;
63120;SDS011;54478;48.684;20.114;2023-06-22T07:13:32;9.30;;;4.20;;
63120;SDS011;54478;48.684;20.114;2023-06-22T07:16:01;6.85;;;4.05;;
63120;SDS011;54478;48.684;20.114;2023-06-22T07:18:29;10.68;;;4.65;;
63120;SDS011;54478;48.684;20.114;2023-06-22T07:20:58;11.25;;;4.78;;
63120;SDS011;54478;48.684;20.114;2023-06-22T07:23:26;9.43;;;4.32;;
63120;SDS011;54478;48.684;20.114;2023-06-22T07:25:54;10.18;;;5.03;;
63120;SDS011;54478;48.684;20.114;2023-06-22T07:28:22;8.20;;;5.03;;
63120;SDS011;54478;48.684;20.114;2023-06-22T07:30:50;9.50;;;5.85;;
63120;SDS011;54478;48.684;20.114;2023-06-22T07:33:19;9.73;;;5.90;;
63120;SDS011;54478;48.684;20.114;2023-06-22T07:35:47;12.25;;;6.50;;
63120;SDS011;54478;48.684;20.114;2023-06-22T07:38:16;13.48;;;6.20;;
63120;SDS011;54478;48.684;20.114;2023-06-22T07:40:41;17.40;;;7.32;;
63120;SDS011;54478;48.684;20.114;2023-06-22T07:43:07;14.73;;;6.07;;
63120;SDS011;54478;48.684;20.114;2023-06-22T07:45:33;15.60;;;7.13;;
63120;SDS011;54478;48.684;20.114;2023-06-22T07:48:02;11.50;;;6.20;;
63120;SDS011;54478;48.684;20.114;2023-06-22T07:50:30;11.27;;;6.40;;
63120;SDS011;54478;48.684;20.114;2023-06-22T07:52:59;11.73;;;7.15;;
63120;SDS011;54478;48.684;20.114;2023-06-22T07:55:27;16.38;;;7.07;;
63120;SDS011;54478;48.684;20.114;2023-06-22T07:57:55;12.73;;;7.28;;
63120;SDS011;54478;48.684;20.114;2023-06-22T08:00:24;10.20;;;6.95;;
63120;SDS011;54478;48.684;20.114;2023-06-22T08:02:52;11.95;;;7.82;;
63120;SDS011;54478;48.684;20.114;2023-06-22T08:05:20;24.23;;;8.50;;
63120;SDS011;54478;48.684;20.114;2023-06-22T08:07:49;11.95;;;7.18;;
63120;SDS011;54478;48.684;20.114;2023-06-22T08:10:18;10.82;;;7.47;;
63120;SDS011;54478;48.684;20.114;2023-06-22T08:12:47;10.50;;;7.38;;
63120;SDS011;54478;48.684;20.114;2023-06-22T08:15:16;12.98;;;8.43;;
63120;SDS011;54478;48.684;20.114;2023-06-22T08:17:41;12.23;;;7.50;;
63120;SDS011;54478;48.684;20.114;2023-06-22T08:20:10;17.17;;;8.43;;
63120;SDS011;54478;48.684;20.114;2023-06-22T08:22:40;11.43;;;8.07;;
63120;SDS011;54478;48.684;20.114;2023-06-22T08:25:09;11.63;;;7.70;;
63120;SDS011;54478;48.684;20.114;2023-06-22T08:27:37;10.98;;;7.80;;
63120;SDS011;54478;48.684;20.114;2023-06-22T08:30:06;16.17;;;8.23;;
63120;SDS011;54478;48.684;20.114;2023-06-22T08:32:34;11.07;;;7.65;;
63120;SDS011;54478;48.684;20.114;2023-06-22T08:35:02;12.35;;;7.65;;
63120;SDS011;54478;48.684;20.114;2023-06-22T08:37:30;12.90;;;7.85;;
63120;SDS011;54478;48.684;20.114;2023-06-22T08:39:59;13.73;;;7.28;;
63120;SDS011;54478;48.684;20.114;2023-06-22T08:42:28;12.63;;;8.30;;
63120;SDS011;54478;48.684;20.114;2023-06-22T08:44:57;11.05;;;6.35;;
63120;SDS011;54478;48.684;20.114;2023-06-22T08:47:24;13.00;;;7.57;;
63120;SDS011;54478;48.684;20.114;2023-06-22T08:49:52;11.63;;;7.50;;
63120;SDS011;54478;48.684;20.114;2023-06-22T08:52:20;13.30;;;8.30;;
63120;SDS011;54478;48.684;20.114;2023-06-22T08:54:48;11.30;;;8.18;;
63120;SDS011;54478;48.684;20.114;2023-06-22T08:57:16;22.98;;;8.27;;
63120;SDS011;54478;48.684;20.114;2023-06-22T08:59:44;10.10;;;6.68;;
63120;SDS011;54478;48.684;20.114;2023-06-22T09:02:12;12.90;;;7.25;;
63120;SDS011;54478;48.684;20.114;2023-06-22T09:04:40;9.80;;;7.05;;
63120;SDS011;54478;48.684;20.114;2023-06-22T09:07:09;13.68;;;7.47;;
63120;SDS011;54478;48.684;20.114;2023-06-22T09:09:37;11.40;;;7.63;;
63120;SDS011;54478;48.684;20.114;2023-06-22T09:12:06;10.70;;;8.07;;
63120;SDS011;54478;48.684;20.114;2023-06-22T09:14:34;12.63;;;7.80;;
63120;SDS011;54478;48.684;20.114;2023-06-22T09:17:02;15.18;;;7.38;;
63120;SDS011;54478;48.684;20.114;2023-06-22T09:19:30;12.57;;;7.70;;
63120;SDS011;54478;48.684;20.114;2023-06-22T09:21:58;15.35;;;7.75;;
63120;SDS011;54478;48.684;20.114;2023-06-22T09:24:26;15.35;;;7.70;;
63120;SDS011;54478;48.684;20.114;2023-06-22T09:26:54;10.93;;;7.35;;
63120;SDS011;54478;48.684;20.114;2023-06-22T09:29:22;12.73;;;7.20;;
63120;SDS011;54478;48.684;20.114;2023-06-22T09:31:48;10.43;;;7.20;;
63120;SDS011;54478;48.684;20.114;2023-06-22T09:34:16;9.40;;;7.50;;
63120;SDS011;54478;48.684;20.114;2023-06-22T09:36:48;11.05;;;6.95;;
63120;SDS011;54478;48.684;20.114;2023-06-22T09:39:17;10.68;;;7.50;;
63120;SDS011;54478;48.684;20.114;2023-06-22T09:41:42;10.70;;;7.35;;
63120;SDS011;54478;48.684;20.114;2023-06-22T09:44:10;11.40;;;7.23;;
63120;SDS011;54478;48.684;20.114;2023-06-22T09:46:38;14.18;;;7.45;;
63120;SDS011;54478;48.684;20.114;2023-06-22T09:49:06;10.85;;;6.93;;
63120;SDS011;54478;48.684;20.114;2023-06-22T09:51:34;9.50;;;7.28;;
63120;SDS011;54478;48.684;20.114;2023-06-22T09:54:02;10.27;;;6.80;;
63120;SDS011;54478;48.684;20.114;2023-06-22T09:56:30;13.82;;;7.57;;
63120;SDS011;54478;48.684;20.114;2023-06-22T09:58:59;11.07;;;8.57;;
63120;SDS011;54478;48.684;20.114;2023-06-22T10:01:27;9.73;;;7.70;;
63120;SDS011;54478;48.684;20.114;2023-06-22T10:03:55;10.70;;;6.95;;
63120;SDS011;54478;48.684;20.114;2023-06-22T10:06:24;10.70;;;7.28;;
63120;SDS011;54478;48.684;20.114;2023-06-22T10:08:52;12.90;;;7.78;;
63120;SDS011;54478;48.684;20.114;2023-06-22T10:11:21;18.48;;;7.78;;
63120;SDS011;54478;48.684;20.114;2023-06-22T10:13:55;11.93;;;6.93;;
63120;SDS011;54478;48.684;20.114;2023-06-22T10:16:24;11.48;;;7.15;;
63120;SDS011;54478;48.684;20.114;2023-06-22T10:21:22;11.90;;;7.43;;
63120;SDS011;54478;48.684;20.114;2023-06-22T10:23:50;11.32;;;7.38;;
63120;SDS011;54478;48.684;20.114;2023-06-22T10:26:18;11.00;;;7.05;;
63120;SDS011;54478;48.684;20.114;2023-06-22T10:28:46;12.32;;;7.30;;
63120;SDS011;54478;48.684;20.114;2023-06-22T10:31:14;11.13;;;7.45;;
63120;SDS011;54478;48.684;20.114;2023-06-22T10:33:44;12.05;;;8.07;;
63120;SDS011;54478;48.684;20.114;2023-06-22T10:36:13;13.02;;;8.27;;
63120;SDS011;54478;48.684;20.114;2023-06-22T10:38:41;11.30;;;7.22;;
63120;SDS011;54478;48.684;20.114;2023-06-22T10:41:06;12.50;;;7.80;;
63120;SDS011;54478;48.684;20.114;2023-06-22T10:43:34;10.00;;;7.50;;
63120;SDS011;54478;48.684;20.114;2023-06-22T10:46:02;11.63;;;7.35;;
63120;SDS011;54478;48.684;20.114;2023-06-22T10:48:30;14.68;;;7.70;;
63120;SDS011;54478;48.684;20.114;2023-06-22T10:50:58;9.93;;;7.20;;
63120;SDS011;54478;48.684;20.114;2023-06-22T10:53:26;9.32;;;7.18;;
63120;SDS011;54478;48.684;20.114;2023-06-22T10:55:54;9.85;;;7.68;;
63120;SDS011;54478;48.684;20.114;2023-06-22T10:58:22;19.52;;;17.38;;
63120;SDS011;54478;48.684;20.114;2023-06-22T11:00:50;12.55;;;8.38;;
63120;SDS011;54478;48.684;20.114;2023-06-22T11:03:18;12.30;;;8.15;;
63120;SDS011;54478;48.684;20.114;2023-06-22T11:05:46;7.85;;;6.88;;
63120;SDS011;54478;48.684;20.114;2023-06-22T11:08:15;11.40;;;8.10;;
63120;SDS011;54478;48.684;20.114;2023-06-22T11:10:43;12.23;;;7.32;;
63120;SDS011;54478;48.684;20.114;2023-06-22T11:13:11;9.55;;;7.50;;
63120;SDS011;54478;48.684;20.114;2023-06-22T11:15:39;14.27;;;7.45;;
63120;SDS011;54478;48.684;20.114;2023-06-22T11:18:07;10.75;;;7.72;;
63120;SDS011;54478;48.684;20.114;2023-06-22T11:20:35;10.65;;;7.82;;
63120;SDS011;54478;48.684;20.114;2023-06-22T11:23:06;15.43;;;7.85;;
63120;SDS011;54478;48.684;20.114;2023-06-22T11:25:34;12.55;;;7.80;;
63120;SDS011;54478;48.684;20.114;2023-06-22T11:28:02;9.77;;;7.35;;
63120;SDS011;54478;48.684;20.114;2023-06-22T11:30:31;9.73;;;7.35;;
63120;SDS011;54478;48.684;20.114;2023-06-22T11:32:59;9.00;;;6.95;;
63120;SDS011;54478;48.684;20.114;2023-06-22T11:35:27;10.73;;;7.55;;
63120;SDS011;54478;48.684;20.114;2023-06-22T11:37:55;14.45;;;8.45;;
63120;SDS011;54478;48.684;20.114;2023-06-22T11:40:21;13.65;;;8.63;;
63120;SDS011;54478;48.684;20.114;2023-06-22T11:42:48;10.80;;;8.13;;
63120;SDS011;54478;48.684;20.114;2023-06-22T11:45:16;10.48;;;7.63;;
63120;SDS011;54478;48.684;20.114;2023-06-22T11:47:46;10.25;;;7.90;;
63120;SDS011;54478;48.684;20.114;2023-06-22T11:50:14;11.05;;;8.07;;
63120;SDS011;54478;48.684;20.114;2023-06-22T11:52:42;14.85;;;7.90;;
63120;SDS011;54478;48.684;20.114;2023-06-22T11:55:10;10.60;;;7.78;;
63120;SDS011;54478;48.684;20.114;2023-06-22T11:57:39;9.18;;;7.25;;
63120;SDS011;54478;48.684;20.114;2023-06-22T12:00:19;16.67;;;7.67;;
63120;SDS011;54478;48.684;20.114;2023-06-22T12:02:46;11.52;;;8.27;;
63120;SDS011;54478;48.684;20.114;2023-06-22T12:05:14;11.82;;;8.07;;
63120;SDS011;54478;48.684;20.114;2023-06-22T12:07:42;13.45;;;7.80;;
63120;SDS011;54478;48.684;20.114;2023-06-22T12:10:10;13.10;;;8.00;;
63120;SDS011;54478;48.684;20.114;2023-06-22T12:12:36;9.65;;;7.43;;
63120;SDS011;54478;48.684;20.114;2023-06-22T12:15:04;9.30;;;8.30;;
63120;SDS011;54478;48.684;20.114;2023-06-22T12:17:29;15.30;;;8.70;;
63120;SDS011;54478;48.684;20.114;2023-06-22T12:19:58;13.68;;;8.15;;
63120;SDS011;54478;48.684;20.114;2023-06-22T12:22:23;13.48;;;8.00;;
63120;SDS011;54478;48.684;20.114;2023-06-22T12:24:51;10.60;;;7.53;;
63120;SDS011;54478;48.684;20.114;2023-06-22T12:27:16;13.20;;;8.18;;
63120;SDS011;54478;48.684;20.114;2023-06-22T12:29:45;13.25;;;8.50;;
63120;SDS011;54478;48.684;20.114;2023-06-22T12:32:10;9.90;;;7.25;;
63120;SDS011;54478;48.684;20.114;2023-06-22T12:34:44;9.90;;;7.85;;
63120;SDS011;54478;48.684;20.114;2023-06-22T12:37:09;11.30;;;7.45;;
63120;SDS011;54478;48.684;20.114;2023-06-22T12:39:37;14.27;;;8.47;;
63120;SDS011;54478;48.684;20.114;2023-06-22T12:42:02;10.15;;;7.68;;
63120;SDS011;54478;48.684;20.114;2023-06-22T12:44:30;11.93;;;7.88;;
63120;SDS011;54478;48.684;20.114;2023-06-22T12:46:58;11.05;;;8.75;;
63120;SDS011;54478;48.684;20.114;2023-06-22T12:49:26;12.82;;;9.27;;
63120;SDS011;54478;48.684;20.114;2023-06-22T12:51:54;10.45;;;8.38;;
63120;SDS011;54478;48.684;20.114;2023-06-22T12:54:22;10.55;;;9.07;;
63120;SDS011;54478;48.684;20.114;2023-06-22T12:56:50;11.50;;;9.32;;
63120;SDS011;54478;48.684;20.114;2023-06-22T12:59:18;12.07;;;9.07;;
63120;SDS011;54478;48.684;20.114;2023-06-22T13:01:46;10.77;;;9.40;;
63120;SDS011;54478;48.684;20.114;2023-06-22T13:04:14;13.10;;;8.52;;
63120;SDS011;54478;48.684;20.114;2023-06-22T13:06:43;13.77;;;8.95;;
63120;SDS011;54478;48.684;20.114;2023-06-22T13:09:15;9.75;;;8.48;;
63120;SDS011;54478;48.684;20.114;2023-06-22T13:11:43;10.77;;;9.25;;
63120;SDS011;54478;48.684;20.114;2023-06-22T13:14:11;16.63;;;9.45;;
63120;SDS011;54478;48.684;20.114;2023-06-22T13:16:39;10.27;;;8.57;;
63120;SDS011;54478;48.684;20.114;2023-06-22T13:19:07;15.98;;;11.32;;
63120;SDS011;54478;48.684;20.114;2023-06-22T13:21:35;10.00;;;8.57;;
63120;SDS011;54478;48.684;20.114;2023-06-22T13:24:03;10.63;;;8.82;;
63120;SDS011;54478;48.684;20.114;2023-06-22T13:26:34;10.23;;;9.13;;
63120;SDS011;54478;48.684;20.114;2023-06-22T13:29:02;18.83;;;10.40;;
63120;SDS011;54478;48.684;20.114;2023-06-22T13:31:30;10.73;;;8.50;;
63120;SDS011;54478;48.684;20.114;2023-06-22T13:33:58;11.02;;;8.90;;
63120;SDS011;54478;48.684;20.114;2023-06-22T13:36:26;11.90;;;9.48;;
63120;SDS011;54478;48.684;20.114;2023-06-22T13:38:54;11.68;;;9.00;;
63120;SDS011;54478;48.684;20.114;2023-06-22T13:41:19;10.30;;;8.70;;
63120;SDS011;54478;48.684;20.114;2023-06-22T13:43:48;10.45;;;8.88;;
63120;SDS011;54478;48.684;20.114;2023-06-22T13:46:16;10.07;;;8.52;;
63120;SDS011;54478;48.684;20.114;2023-06-22T13:48:45;14.43;;;9.10;;
63120;SDS011;54478;48.684;20.114;2023-06-22T13:51:12;12.00;;;9.40;;
63120;SDS011;54478;48.684;20.114;2023-06-22T13:53:40;10.13;;;8.80;;
63120;SDS011;54478;48.684;20.114;2023-06-22T13:56:09;11.25;;;9.27;;
63120;SDS011;54478;48.684;20.114;2023-06-22T13:58:37;11.82;;;9.20;;
63120;SDS011;54478;48.684;20.114;2023-06-22T14:01:05;11.27;;;9.02;;
63120;SDS011;54478;48.684;20.114;2023-06-22T14:03:34;10.40;;;8.93;;
63120;SDS011;54478;48.684;20.114;2023-06-22T14:06:02;11.50;;;9.45;;
63120;SDS011;54478;48.684;20.114;2023-06-22T14:08:30;11.30;;;8.52;;
63120;SDS011;54478;48.684;20.114;2023-06-22T14:10:58;12.30;;;8.50;;
63120;SDS011;54478;48.684;20.114;2023-06-22T14:13:26;13.23;;;9.40;;
63120;SDS011;54478;48.684;20.114;2023-06-22T14:15:54;12.80;;;9.63;;
63120;SDS011;54478;48.684;20.114;2023-06-22T14:18:22;12.68;;;9.82;;
63120;SDS011;54478;48.684;20.114;2023-06-22T14:20:50;10.25;;;9.15;;
63120;SDS011;54478;48.684;20.114;2023-06-22T14:23:18;10.43;;;8.95;;
63120;SDS011;54478;48.684;20.114;2023-06-22T14:25:46;11.25;;;8.82;;
63120;SDS011;54478;48.684;20.114;2023-06-22T14:28:14;11.18;;;8.80;;
63120;SDS011;54478;48.684;20.114;2023-06-22T14:30:44;10.52;;;9.05;;
63120;SDS011;54478;48.684;20.114;2023-06-22T14:33:12;11.73;;;9.20;;
63120;SDS011;54478;48.684;20.114;2023-06-22T14:35:40;11.98;;;9.23;;
63120;SDS011;54478;48.684;20.114;2023-06-22T14:38:08;12.23;;;9.57;;
63120;SDS011;54478;48.684;20.114;2023-06-22T14:40:33;12.80;;;9.32;;
63120;SDS011;54478;48.684;20.114;2023-06-22T14:43:02;10.17;;;8.83;;
63120;SDS011;54478;48.684;20.114;2023-06-22T14:45:30;12.43;;;8.98;;